Time;durP1;ratioP1;P1;durP2;ratioP2;P2;SDS_P1;SDS_P2;PMS_P1;PMS_P2;Temp;Humidity;BMP_temperature;BMP_pressure;BME280_temperature;BME280_humidity;BME280_pressure;Samples;Min_cycle;Max_cycle;Signal;HPM_P1;HPM_P2
2022/04/23 00:02:00;;;;;;;;;;;;;;;10.57;100.00;99552.78;5076077;28;20293;-76
2022/04/23 00:04:28;;;;;;;;;;;;;;;10.57;100.00;99559.81;5083300;28;20319;-75
2022/04/23 00:06:53;;;;;;;;;;;;;;;10.60;100.00;99562.50;5077824;28;19928;-75
2022/04/23 00:09:19;;;;;;;;;;;;;;;10.54;100.00;99563.28;5076460;28;19920;-75
2022/04/23 00:11:45;;;;;;;;;;;;;;;10.57;100.00;99551.91;5090895;28;19927;-74
2022/04/23 00:14:13;;;;;;;;;;;;;;;10.57;100.00;99557.19;5075793;28;20018;-78
2022/04/23 00:16:38;;;;;;;;;;;;;;;10.56;100.00;99547.50;5090456;28;20582;-77
2022/04/23 00:19:04;;;;;;;;;;;;;;;10.57;100.00;99544.03;5093977;28;19955;-76
2022/04/23 00:21:29;;;;;;;;;;;;;;;10.58;100.00;99543.13;5082948;28;19921;-76
2022/04/23 00:23:54;;;;;;;;;;;;;;;10.57;100.00;99544.03;5080349;28;19939;-75
2022/04/23 00:26:19;;;;;;;;;;;;;;;10.56;100.00;99540.47;5101460;28;20014;-77
2022/04/23 00:28:45;;;;;;;;;;;;;;;10.54;100.00;99529.06;5100129;28;20024;-76
2022/04/23 00:31:10;;;;;;;;;;;;;;;10.52;100.00;99533.41;5075134;28;19920;-76
2022/04/23 00:33:37;;;;;;;;;;;;;;;10.51;100.00;99531.63;5074970;28;20330;-78
2022/04/23 00:36:04;;;;;;;;;;;;;;;10.51;100.00;99521.09;5087564;28;20007;-76
2022/04/23 00:38:29;;;;;;;;;;;;;;;10.49;100.00;99521.97;5095662;28;19966;-79
2022/04/23 00:40:55;;;;;;;;;;;;;;;10.47;100.00;99523.66;5091878;28;20314;-76
2022/04/23 00:43:28;;;;;;;;;;;;;;;10.47;100.00;99511.41;5095371;28;20018;-78
2022/04/23 00:45:56;;;;;;;;;;;;;;;10.44;100.00;99510.47;5095360;27;19916;-76
2022/04/23 00:48:21;;;;;;;;;;;;;;;10.43;100.00;99498.19;5094893;28;19924;-78
2022/04/23 00:50:51;;;;;;;;;;;;;;;10.40;100.00;99505.16;5090238;28;19920;-75
2022/04/23 00:53:16;;;;;;;;;;;;;;;10.36;100.00;99495.47;5076379;28;19947;-74
2022/04/23 00:55:42;;;;;;;;;;;;;;;10.43;100.00;99490.28;5085897;28;19923;-74
2022/04/23 00:58:07;;;;;;;;;;;;;;;10.40;100.00;99486.75;5090978;28;20357;-79
2022/04/23 01:00:33;;;;;;;;;;;;;;;10.34;100.00;99481.38;5108354;28;19932;-76
2022/04/23 01:02:59;;;;;;;;;;;;;;;10.29;100.00;99471.63;5081155;28;20012;-77
2022/04/23 01:05:25;;;;;;;;;;;;;;;10.26;100.00;99477.72;5094028;28;19920;-76
2022/04/23 01:07:51;;;;;;;;;;;;;;;10.22;100.00;99465.38;5089389;28;19924;-73
2022/04/23 01:10:17;;;;;;;;;;;;;;;10.19;100.00;99471.50;5077590;28;20014;-76
2022/04/23 01:12:45;;;;;;;;;;;;;;;10.23;100.00;99461.91;5082756;28;19941;-77
2022/04/23 01:15:11;;;;;;;;;;;;;;;10.17;100.00;99449.53;5093457;28;19942;-76
2022/04/23 01:17:37;;;;;;;;;;;;;;;10.13;100.00;99445.09;5093378;28;19927;-75
2022/04/23 01:20:13;;;;;;;;;;;;;;;10.13;100.00;99444.19;5088497;28;19920;-74
2022/04/23 01:22:39;;;;;;;;;;;;;;;10.05;100.00;99431.81;5076932;28;19973;-76
2022/04/23 01:25:06;;;;;;;;;;;;;;;10.04;100.00;99430.03;5093014;28;19924;-77
2022/04/23 01:27:31;;;;;;;;;;;;;;;10.02;100.00;99426.53;5083834;28;19964;-75
2022/04/23 01:29:58;;;;;;;;;;;;;;;10.00;100.00;99428.22;5083857;28;19927;-75
2022/04/23 01:32:25;;;;;;;;;;;;;;;9.98;100.00;99422.06;5093520;28;19966;-74
2022/04/23 01:34:52;;;;;;;;;;;;;;;9.99;100.00;99418.59;5079833;28;19960;-75
2022/04/23 01:37:17;;;;;;;;;;;;;;;9.99;100.00;99408.06;5090125;28;19916;-74
2022/04/23 01:39:44;;;;;;;;;;;;;;;9.96;100.00;99405.38;5096026;28;19920;-75
2022/04/23 01:42:09;;;;;;;;;;;;;;;9.94;100.00;99409.72;5101490;28;19926;-75
2022/04/23 01:44:39;;;;;;;;;;;;;;;9.92;100.00;99400.94;5085894;28;19916;-74
2022/04/23 01:47:04;;;;;;;;;;;;;;;9.87;100.00;99392.97;5088893;28;19920;-74
2022/04/23 01:49:30;;;;;;;;;;;;;;;9.83;100.00;99387.63;5077523;28;20005;-75
2022/04/23 01:51:55;;;;;;;;;;;;;;;9.78;100.00;99384.06;5079107;28;20050;-73
2022/04/23 01:54:20;;;;;;;;;;;;;;;9.78;100.00;99377.06;5090760;28;19923;-75
2022/04/23 01:56:46;;;;;;;;;;;;;;;9.76;100.00;99377.91;5085220;28;19920;-75
2022/04/23 01:59:11;;;;;;;;;;;;;;;9.73;100.00;99362.09;5073848;28;19920;-75
2022/04/23 02:01:38;;;;;;;;;;;;;;;9.72;100.00;99369.06;5078865;28;19923;-74
2022/04/23 02:04:06;;;;;;;;;;;;;;;9.69;100.00;99353.25;5086007;28;20010;-75
2022/04/23 02:06:33;;;;;;;;;;;;;;;9.66;100.00;99353.19;5088023;28;19935;-76
2022/04/23 02:08:58;;;;;;;;;;;;;;;9.69;100.00;99337.47;5076886;28;19923;-74
2022/04/23 02:11:24;;;;;;;;;;;;;;;9.66;100.00;99332.19;5076741;28;20280;-75
2022/04/23 02:13:51;;;;;;;;;;;;;;;9.64;100.00;99326.91;5072251;28;20021;-78
2022/04/23 02:16:16;;;;;;;;;;;;;;;9.59;100.00;99319.81;5079410;28;19916;-76
2022/04/23 02:18:41;;;;;;;;;;;;;;;9.57;100.00;99322.44;5095865;28;19923;-77
2022/04/23 02:21:07;;;;;;;;;;;;;;;9.57;100.00;99305.75;5088205;28;19920;-77
2022/04/23 02:23:32;;;;;;;;;;;;;;;9.51;100.00;99302.19;5084160;28;19920;-77
2022/04/23 02:25:58;;;;;;;;;;;;;;;9.49;100.00;99293.41;5082423;28;19921;-76
2022/04/23 02:28:23;;;;;;;;;;;;;;;9.50;100.00;99294.28;5078684;28;20380;-77
2022/04/23 02:30:49;;;;;;;;;;;;;;;9.50;100.00;99289.03;5090736;28;19969;-77
2022/04/23 02:33:16;;;;;;;;;;;;;;;9.46;100.00;99284.56;5097365;28;19916;-76
2022/04/23 02:35:44;;;;;;;;;;;;;;;9.45;100.00;99280.19;5087257;28;19924;-75
2022/04/23 02:38:10;;;;;;;;;;;;;;;9.39;100.00;99272.22;5112070;28;19926;-76
2022/04/23 02:40:35;;;;;;;;;;;;;;;9.39;100.00;99270.47;5091517;28;20288;-76
2022/04/23 02:43:03;;;;;;;;;;;;;;;9.38;100.00;99263.44;5083650;28;19924;-77
2022/04/23 02:45:28;;;;;;;;;;;;;;;9.38;100.00;99262.56;5091890;28;19920;-78
2022/04/23 02:47:56;;;;;;;;;;;;;;;9.34;100.00;99246.75;5074657;28;20260;-77
2022/04/23 02:50:25;;;;;;;;;;;;;;;9.32;100.00;99250.19;5083963;28;19995;-77
2022/04/23 02:52:53;;;;;;;;;;;;;;;9.28;100.00;99238.78;5090214;28;20011;-77
2022/04/23 02:55:18;;;;;;;;;;;;;;;9.27;100.00;99244.88;5082197;28;19931;-77
2022/04/23 02:57:43;;;;;;;;;;;;;;;9.23;100.00;99227.31;5086102;28;19925;-76
2022/04/23 03:00:12;;;;;;;;;;;;;;;9.22;100.00;99224.66;5085557;28;19920;-78
2022/04/23 03:02:38;;;;;;;;;;;;;;;9.17;100.00;99211.47;5097803;28;19917;-77
2022/04/23 03:05:05;;;;;;;;;;;;;;;9.12;100.00;99207.88;5092120;28;19923;-78
2022/04/23 03:07:30;;;;;;;;;;;;;;;9.10;100.00;99196.47;5092124;28;19920;-77
2022/04/23 03:09:55;;;;;;;;;;;;;;;9.06;100.00;99185.03;5077604;28;19977;-75
2022/04/23 03:12:22;;;;;;;;;;;;;;;9.07;100.00;99178.03;5085323;28;19926;-74
2022/04/23 03:14:48;;;;;;;;;;;;;;;9.06;100.00;99165.75;5070376;28;19932;-74
2022/04/23 03:17:13;;;;;;;;;;;;;;;9.05;100.00;99154.38;5083141;28;19989;-74
2022/04/23 03:19:39;;;;;;;;;;;;;;;9.04;100.00;99146.47;5082389;28;20030;-78
2022/04/23 03:22:04;;;;;;;;;;;;;;;9.03;100.00;99134.25;5088104;28;19931;-74
2022/04/23 03:24:29;;;;;;;;;;;;;;;9.07;100.00;99133.41;5075392;28;20014;-74
2022/04/23 03:26:54;;;;;;;;;;;;;;;9.07;100.00;99118.53;5087664;28;19928;-74
2022/04/23 03:29:21;;;;;;;;;;;;;;;9.10;100.00;99110.69;5088974;28;21570;-75
2022/04/23 03:31:50;;;;;;;;;;;;;;;9.08;100.00;99101.91;5076959;28;20062;-75
2022/04/23 03:34:18;;;;;;;;;;;;;;;9.11;100.00;99101.09;5062690;28;19928;-73
2022/04/23 03:36:44;;;;;;;;;;;;;;;9.11;100.00;99090.59;5083849;28;19928;-75
2022/04/23 03:39:09;;;;;;;;;;;;;;;9.10;100.00;99087.06;5078923;28;19921;-75
2022/04/23 03:41:34;;;;;;;;;;;;;;;9.13;100.00;99083.59;5073908;28;19916;-76
2022/04/23 03:44:00;;;;;;;;;;;;;;;9.12;100.00;99073.94;5072999;28;19970;-76
2022/04/23 03:46:26;;;;;;;;;;;;;;;9.10;100.00;99065.19;5077286;28;19927;-74
2022/04/23 03:48:51;;;;;;;;;;;;;;;9.06;100.00;99071.25;5074362;28;19920;-75
2022/04/23 03:51:17;;;;;;;;;;;;;;;9.01;100.00;99059.81;5076505;28;20361;-74
2022/04/23 03:53:43;;;;;;;;;;;;;;;9.00;100.00;99052.81;5088117;28;19916;-73
2022/04/23 03:56:10;;;;;;;;;;;;;;;9.00;100.00;99044.94;5088046;28;19973;-77
2022/04/23 03:58:35;;;;;;;;;;;;;;;8.98;100.00;99037.03;5091197;28;19916;-77
2022/04/23 04:01:01;;;;;;;;;;;;;;;8.95;100.00;99032.63;5076566;28;20018;-77
2022/04/23 04:03:27;;;;;;;;;;;;;;;8.95;100.00;99019.50;5091313;28;19920;-77
2022/04/23 04:05:53;;;;;;;;;;;;;;;8.93;100.00;99007.19;5087518;28;19921;-77
2022/04/23 04:08:20;;;;;;;;;;;;;;;8.96;100.00;99007.22;5071890;28;20384;-78
2022/04/23 04:10:45;;;;;;;;;;;;;;;8.92;100.00;99002.81;5085882;28;19956;-79
2022/04/23 04:13:10;;;;;;;;;;;;;;;8.91;100.00;98996.69;5090202;28;19975;-78
2022/04/23 04:15:36;;;;;;;;;;;;;;;8.87;100.00;98987.03;5091288;28;20609;-75
2022/04/23 04:18:01;;;;;;;;;;;;;;;8.88;100.00;98978.25;5090737;28;19942;-78
2022/04/23 04:20:27;;;;;;;;;;;;;;;8.89;100.00;98973.91;5076796;28;19943;-77
2022/04/23 04:22:55;;;;;;;;;;;;;;;8.92;100.00;98964.31;5091339;28;20360;-77
2022/04/23 04:25:20;;;;;;;;;;;;;;;8.97;100.00;98957.38;5088608;28;19924;-75
2022/04/23 04:27:46;;;;;;;;;;;;;;;9.01;100.00;98945.19;5091326;28;20366;-75
2022/04/23 04:30:11;;;;;;;;;;;;;;;9.05;100.00;98946.97;5095183;28;19927;-75
2022/04/23 04:32:37;;;;;;;;;;;;;;;9.02;100.00;98938.19;5095425;28;19927;-76
2022/04/23 04:35:03;;;;;;;;;;;;;;;9.03;100.00;98932.09;5095348;28;20334;-76
2022/04/23 04:37:28;;;;;;;;;;;;;;;9.05;100.00;98933.84;5097661;28;19923;-78
2022/04/23 04:39:54;;;;;;;;;;;;;;;9.05;100.00;98919.84;5075185;28;19931;-78
2022/04/23 04:42:19;;;;;;;;;;;;;;;9.07;100.00;98916.34;5094153;28;19970;-77
2022/04/23 04:44:45;;;;;;;;;;;;;;;9.08;100.00;98915.50;5098300;28;19920;-79
2022/04/23 04:47:11;;;;;;;;;;;;;;;9.09;100.00;98919.00;5098558;28;19923;-77
2022/04/23 04:49:36;;;;;;;;;;;;;;;9.09;100.00;98911.13;5100761;28;20007;-76
2022/04/23 04:52:02;;;;;;;;;;;;;;;9.17;100.00;98904.22;5097629;28;20333;-75
2022/04/23 04:54:27;;;;;;;;;;;;;;;9.19;100.00;98910.34;5089997;28;19924;-77
2022/04/23 04:56:53;;;;;;;;;;;;;;;9.24;100.00;98906.03;5060152;28;19924;-76
2022/04/23 04:59:20;;;;;;;;;;;;;;;9.38;100.00;98905.28;5077793;28;19963;-75
2022/04/23 05:01:46;;;;;;;;;;;;;;;9.67;100.00;98902.94;5082658;28;20006;-77
2022/04/23 05:04:14;;;;;;;;;;;;;;;9.91;100.00;98912.75;5087268;28;20332;-76
2022/04/23 05:06:40;;;;;;;;;;;;;;;10.07;100.00;98933.03;5085308;28;19928;-77
2022/04/23 05:09:05;;;;;;;;;;;;;;;10.29;100.00;98942.84;5081035;28;19920;-80
2022/04/23 05:11:30;;;;;;;;;;;;;;;10.34;100.00;98968.31;5095350;28;19932;-79
2022/04/23 05:13:59;;;;;;;;;;;;;;;10.55;100.00;98977.22;5094096;28;19920;-81
2022/04/23 05:16:24;;;;;;;;;;;;;;;10.58;100.00;99000.91;5094865;28;19920;-79
2022/04/23 05:18:50;;;;;;;;;;;;;;;10.60;100.00;99012.38;5094392;28;19973;-78
2022/04/23 05:21:15;;;;;;;;;;;;;;;10.71;100.00;99028.22;5085449;28;19920;-80
2022/04/23 05:23:44;;;;;;;;;;;;;;;10.69;100.00;99045.75;5091751;28;19923;-79
2022/04/23 05:26:10;;;;;;;;;;;;;;;10.63;100.00;99054.50;5092310;28;19950;-76
2022/04/23 05:28:35;;;;;;;;;;;;;;;10.76;100.00;99058.09;5091689;28;20010;-75
2022/04/23 05:31:01;;;;;;;;;;;;;;;10.71;100.00;99073.84;5092057;28;20018;-76
2022/04/23 05:33:28;;;;;;;;;;;;;;;10.87;100.00;99087.13;5092332;28;19985;-76
2022/04/23 05:35:53;;;;;;;;;;;;;;;10.99;100.00;99081.94;5085733;28;19975;-76
2022/04/23 05:38:19;;;;;;;;;;;;;;;11.26;100.00;99106.66;5077606;28;19964;-75
2022/04/23 05:40:44;;;;;;;;;;;;;;;11.44;100.00;99119.06;5073264;28;19925;-75
2022/04/23 05:43:11;;;;;;;;;;;;;;;11.44;100.00;99140.16;5055748;28;19982;-76
2022/04/23 05:45:36;;;;;;;;;;;;;;;11.70;100.00;99158.72;5078588;28;19921;-76
2022/04/23 05:48:01;;;;;;;;;;;;;;;11.60;100.00;99183.28;5075176;28;20133;-76
2022/04/23 05:50:27;;;;;;;;;;;;;;;11.57;100.00;99191.16;5090455;28;20327;-76
2022/04/23 05:52:52;;;;;;;;;;;;;;;11.71;100.00;99202.66;5079234;28;19920;-75
2022/04/23 05:55:18;;;;;;;;;;;;;;;11.81;100.00;99204.47;5074509;28;20447;-76
2022/04/23 05:57:43;;;;;;;;;;;;;;;11.34;100.00;99220.88;5071932;28;19916;-74
2022/04/23 06:00:10;;;;;;;;;;;;;;;11.05;100.00;99200.50;5092054;28;19916;-74
2022/04/23 06:02:35;;;;;;;;;;;;;;;11.32;100.00;99183.09;5092683;28;19962;-76
2022/04/23 06:05:02;;;;;;;;;;;;;;;11.74;100.00;99193.88;5092716;28;19916;-78
2022/04/23 06:07:28;;;;;;;;;;;;;;;11.78;100.00;99207.09;5092677;28;19920;-75
2022/04/23 06:09:53;;;;;;;;;;;;;;;12.10;100.00;99229.25;5093792;28;19919;-76
2022/04/23 06:12:18;;;;;;;;;;;;;;;12.23;100.00;99248.63;5081175;28;19936;-76
2022/04/23 06:14:49;;;;;;;;;;;;;;;12.42;100.00;99274.22;5090329;28;19920;-75
2022/04/23 06:17:14;;;;;;;;;;;;;;;12.01;100.00;99280.22;5079259;28;19924;-77
2022/04/23 06:19:40;;;;;;;;;;;;;;;12.01;100.00;99278.47;5073768;28;19916;-77
2022/04/23 06:22:05;;;;;;;;;;;;;;;12.15;100.00;99254.78;5072683;28;19921;-78
2022/04/23 06:24:31;;;;;;;;;;;;;;;12.21;100.00;99277.66;5089196;28;19925;-78
2022/04/23 06:26:57;;;;;;;;;;;;;;;12.27;100.00;99276.81;5072354;28;19928;-79
2022/04/23 06:29:22;;;;;;;;;;;;;;;12.45;100.00;99295.34;5072624;28;19919;-77
2022/04/23 06:31:48;;;;;;;;;;;;;;;12.52;100.00;99283.03;5087744;28;20346;-75
2022/04/23 06:34:15;;;;;;;;;;;;;;;12.60;100.00;99315.66;5087130;28;19928;-75
2022/04/23 06:36:41;;;;;;;;;;;;;;;12.73;100.00;99313.91;5091554;28;20023;-75
2022/04/23 06:39:07;;;;;;;;;;;;;;;12.75;100.00;99328.00;5093251;28;19962;-75
2022/04/23 06:41:32;;;;;;;;;;;;;;;12.77;100.00;99334.19;5091549;28;19916;-76
2022/04/23 06:43:58;;;;;;;;;;;;;;;13.08;100.00;99363.28;5090960;28;19920;-78
2022/04/23 06:46:23;;;;;;;;;;;;;;;13.06;100.00;99375.63;5080988;28;19923;-80
2022/04/23 06:48:48;;;;;;;;;;;;;;;13.38;100.00;99375.72;5076009;28;20437;-78
2022/04/23 06:51:13;;;;;;;;;;;;;;;13.07;100.00;99432.91;5092324;28;19923;-78
2022/04/23 06:53:43;;;;;;;;;;;;;;;12.90;100.00;99425.78;5092147;28;20011;-78
2022/04/23 06:56:08;;;;;;;;;;;;;;;13.49;100.00;99427.75;5085428;28;19916;-77
2022/04/23 06:58:34;;;;;;;;;;;;;;;12.95;100.00;99454.00;5072819;28;19927;-78
2022/04/23 07:01:00;;;;;;;;;;;;;;;13.12;100.00;99423.22;5072205;28;20335;-76
2022/04/23 07:03:27;;;;;;;;;;;;;;;13.50;100.00;99451.56;5076502;28;19978;-78
2022/04/23 07:05:53;;;;;;;;;;;;;;;13.54;100.00;99497.41;5088326;28;20252;-78
2022/04/23 07:08:18;;;;;;;;;;;;;;;13.20;100.00;99524.56;5083195;28;19924;-78
2022/04/23 07:10:44;;;;;;;;;;;;;;;13.51;100.00;99526.47;5072769;28;19927;-78
2022/04/23 07:13:12;;;;;;;;;;;;;;;13.68;100.00;99545.03;5092505;28;20337;-79
2022/04/23 07:15:39;;;;;;;;;;;;;;;13.76;100.00;99557.38;5091375;28;19916;-75
2022/04/23 07:18:06;;;;;;;;;;;;;;;13.63;100.00;99567.06;5091761;28;19920;-77
2022/04/23 07:20:31;;;;;;;;;;;;;;;13.31;100.00;99581.88;5081273;28;20277;-75
2022/04/23 07:25:40;;;;;;;;;;;;;;;13.72;100.00;99566.22;5107588;28;19973;-77
2022/04/23 07:28:05;;;;;;;;;;;;;;;13.57;100.00;99600.53;5093599;28;20364;-78
2022/04/23 07:30:31;;;;;;;;;;;;;;;13.86;100.00;99578.56;5092727;28;20002;-74
2022/04/23 07:32:58;;;;;;;;;;;;;;;14.34;100.00;99591.00;5108894;28;19916;-76
2022/04/23 07:38:14;;;;;;;;;;;;;;;14.23;100.00;99627.19;5093084;28;19923;-78
2022/04/23 07:40:40;;;;;;;;;;;;;;;14.65;100.00;99644.03;5075154;28;19920;-75
2022/04/23 07:43:11;;;;;;;;;;;;;;;14.25;100.00;99651.91;5081210;28;19927;-75
2022/04/23 07:45:40;;;;;;;;;;;;;;;14.11;100.00;99648.34;5080492;28;20011;-75
2022/04/23 07:48:05;;;;;;;;;;;;;;;13.99;100.00;99636.81;5074142;28;19916;-75
2022/04/23 07:50:31;;;;;;;;;;;;;;;14.50;100.00;99628.09;5072841;28;20352;-75
2022/04/23 07:52:57;;;;;;;;;;;;;;;14.55;100.00;99664.28;5073468;28;19920;-76
2022/04/23 07:55:22;;;;;;;;;;;;;;;14.72;100.00;99664.31;5074333;28;20280;-75
2022/04/23 07:57:48;;;;;;;;;;;;;;;14.49;100.00;99666.91;5073032;28;19916;-75
2022/04/23 08:00:13;;;;;;;;;;;;;;;14.55;100.00;99661.63;5073534;28;19920;-74
2022/04/23 08:02:38;;;;;;;;;;;;;;;14.45;100.00;99664.25;5075684;28;20267;-75
2022/04/23 08:05:04;;;;;;;;;;;;;;;14.82;100.00;99681.13;5080837;28;19916;-75
2022/04/23 08:07:29;;;;;;;;;;;;;;;14.71;100.00;99694.38;5073690;28;19923;-75
2022/04/23 08:09:55;;;;;;;;;;;;;;;14.53;100.00;99711.09;5073194;28;20409;-76
2022/04/23 08:12:21;;;;;;;;;;;;;;;14.34;100.00;99689.00;5082048;28;20017;-75
2022/04/23 08:14:46;;;;;;;;;;;;;;;14.48;100.00;99686.38;5067203;28;19942;-77
2022/04/23 08:17:11;;;;;;;;;;;;;;;14.13;100.00;99663.34;5084870;28;21519;-75
2022/04/23 08:19:37;;;;;;;;;;;;;;;14.35;100.00;99651.00;5073833;28;19961;-75
2022/04/23 08:22:03;;;;;;;;;;;;;;;14.51;100.00;99662.53;5078892;28;19969;-78
2022/04/23 08:24:30;;;;;;;;;;;;;;;14.32;100.00;99695.16;5093708;28;19920;-76
2022/04/23 08:26:55;;;;;;;;;;;;;;;14.50;100.00;99675.78;5112526;28;20003;-75
2022/04/23 08:32:05;;;;;;;;;;;;;;;14.83;100.00;99716.44;5111256;28;19927;-75
2022/04/23 08:34:31;;;;;;;;;;;;;;;15.00;100.00;99701.44;5090330;28;19927;-75
2022/04/23 08:36:57;;;;;;;;;;;;;;;14.69;100.00;99697.91;5084566;28;19935;-74
2022/04/23 08:39:22;;;;;;;;;;;;;;;14.62;100.00;99694.38;5094825;28;19916;-75
2022/04/23 08:41:48;;;;;;;;;;;;;;;14.76;100.00;99702.31;5097572;28;19915;-77
2022/04/23 08:44:14;;;;;;;;;;;;;;;14.60;100.00;99719.94;5110621;28;19927;-76
2022/04/23 08:46:39;;;;;;;;;;;;;;;14.73;100.00;99742.06;5090272;28;20391;-75
2022/04/23 08:49:09;;;;;;;;;;;;;;;14.55;100.00;99713.75;5096864;28;19916;-73
2022/04/23 08:51:35;;;;;;;;;;;;;;;14.79;100.00;99704.06;5091561;28;20015;-76
2022/04/23 08:54:06;;;;;;;;;;;;;;;14.49;100.00;99703.13;5106275;28;19985;-76
2022/04/23 08:56:31;;;;;;;;;;;;;;;14.84;100.00;99699.69;5097402;28;19924;-76
2022/04/23 08:58:57;;;;;;;;;;;;;;;14.32;100.00;99717.22;5087929;28;19920;-75
2022/04/23 09:01:22;;;;;;;;;;;;;;;14.26;100.00;99682.81;5077349;28;19969;-76
2022/04/23 09:03:48;;;;;;;;;;;;;;;14.05;100.00;99719.78;5085066;28;19923;-75
2022/04/23 09:06:14;;;;;;;;;;;;;;;14.05;100.00;99717.16;5093734;28;19927;-75
2022/04/23 09:08:59;;;;;;;;;;;;;;;14.62;100.00;99699.66;5091140;28;19920;-75
2022/04/23 09:11:35;;;;;;;;;;;;;;;14.72;100.00;99722.63;5094934;28;19989;-76
2022/04/23 09:14:04;;;;;;;;;;;;;;;14.92;100.00;99739.44;5107673;28;19919;-73
2022/04/23 09:24:55;;;;;;;;;;;;;;;16.19;100.00;99794.09;5098301;28;19926;-76
2022/04/23 09:27:27;;;;;;;;;;;;;;;16.00;100.00;99810.97;5076203;28;19924;-73
2022/04/23 09:30:00;;;;;;;;;;;;;;;14.88;100.00;99791.53;5095986;28;19952;-72
2022/04/23 09:32:27;;;;;;;;;;;;;;;14.62;100.00;99787.09;5096145;28;19916;-74
2022/04/23 09:35:10;;;;;;;;;;;;;;;15.00;100.00;99758.88;5081172;28;20402;-72
2022/04/23 09:40:22;;;;;;;;;;;;;;;14.83;100.00;99748.25;5108847;28;20528;-76
2022/04/23 09:43:05;;;;;;;;;;;;;;;15.04;100.00;99753.56;5092307;28;19924;-75
2022/04/23 09:45:31;;;;;;;;;;;;;;;15.06;100.00;99753.56;5060762;28;19920;-77
2022/04/23 09:48:12;;;;;;;;;;;;;;;14.97;100.00;99765.03;5086843;28;19981;-76
2022/04/23 09:50:41;;;;;;;;;;;;;;;14.72;100.00;99743.81;5075845;28;19916;-79
2022/04/23 09:53:18;;;;;;;;;;;;;;;14.65;100.00;99736.75;5073636;28;19928;-76
2022/04/23 09:55:45;;;;;;;;;;;;;;;14.81;100.00;99750.91;5096812;28;20152;-77
2022/04/23 09:58:12;;;;;;;;;;;;;;;14.56;100.00;99763.19;5076676;28;19943;-75
2022/04/23 10:00:41;;;;;;;;;;;;;;;14.62;100.00;99754.41;5094320;28;19916;-74
2022/04/23 10:03:08;;;;;;;;;;;;;;;14.69;100.00;99735.84;5074928;28;19955;-78
2022/04/23 10:05:52;;;;;;;;;;;;;;;14.88;100.00;99746.47;5075842;28;19950;-75
2022/04/23 10:08:18;;;;;;;;;;;;;;;14.52;100.00;99730.50;5076555;28;19947;-75
2022/04/23 10:10:44;;;;;;;;;;;;;;;14.54;100.00;99728.75;5106216;28;20011;-73
2022/04/23 10:13:11;;;;;;;;;;;;;;;14.91;100.00;99754.44;5114133;28;19916;-77
2022/04/23 10:15:38;;;;;;;;;;;;;;;14.95;100.00;99773.91;5076636;28;19966;-77
2022/04/23 10:18:04;;;;;;;;;;;;;;;14.83;100.00;99783.59;5076602;28;19964;-77
2022/04/23 10:20:30;;;;;;;;;;;;;;;14.73;100.00;99781.81;5115053;28;19998;-74
2022/04/23 10:23:00;;;;;;;;;;;;;;;14.83;100.00;99759.72;5096512;28;19916;-76
2022/04/23 10:25:47;;;;;;;;;;;;;;;15.74;100.00;99769.44;5077033;28;20024;-73
2022/04/23 10:28:15;;;;;;;;;;;;;;;16.08;100.00;99804.75;5105254;28;19973;-76
2022/04/23 10:30:40;;;;;;;;;;;;;;;16.22;100.00;99833.91;5099038;28;19954;-78
2022/04/23 10:33:26;;;;;;;;;;;;;;;16.46;100.00;99840.03;5097275;28;19972;-75
2022/04/23 10:36:01;;;;;;;;;;;;;;;16.50;100.00;99866.56;5110406;28;20053;-76
2022/04/23 10:38:27;;;;;;;;;;;;;;;15.91;100.00;99879.13;5094309;28;19920;-74
2022/04/23 10:40:55;;;;;;;;;;;;;;;15.82;100.00;99841.97;5095557;28;19930;-74
2022/04/23 10:43:21;;;;;;;;;;;;;;;15.66;100.00;99838.44;5095354;28;19916;-76
2022/04/23 10:45:48;;;;;;;;;;;;;;;15.69;100.00;99814.56;5075231;28;19920;-75
2022/04/23 10:48:19;;;;;;;;;;;;;;;16.08;100.00;99818.03;5075540;28;20007;-75
2022/04/23 10:51:00;;;;;;;;;;;;;;;16.34;100.00;99838.28;5079679;28;19923;-75
2022/04/23 10:53:29;;;;;;;;;;;;;;;16.07;100.00;99853.44;5074462;28;19916;-75
2022/04/23 10:56:11;;;;;;;;;;;;;;;16.37;100.00;99843.59;5092306;28;19927;-75
2022/04/23 10:58:42;;;;;;;;;;;;;;;16.34;100.00;99856.88;5078416;28;20337;-75
2022/04/23 11:01:20;;;;;;;;;;;;;;;16.06;100.00;99869.38;5094628;28;19960;-75
2022/04/23 11:04:06;;;;;;;;;;;;;;;16.12;100.00;99856.94;5076996;28;19924;-75
2022/04/23 11:12:22;;;;;;;;;;;;;;;16.32;100.00;99895.88;5097867;28;19919;-75
2022/04/23 11:14:52;;;;;;;;;;;;;;;16.57;100.00;99898.44;5073122;28;19924;-76
2022/04/23 11:17:23;;;;;;;;;;;;;;;16.53;100.00;99889.63;5057949;28;20651;-76
2022/04/23 11:19:55;;;;;;;;;;;;;;;16.78;100.00;99903.69;5089938;28;19973;-76
2022/04/23 11:22:21;;;;;;;;;;;;;;;16.30;100.00;99940.16;5112992;28;19918;-76
2022/04/23 11:24:48;;;;;;;;;;;;;;;16.18;100.00;99903.00;5085135;28;20007;-73
2022/04/23 11:27:23;;;;;;;;;;;;;;;15.97;100.00;99894.16;5092818;28;19920;-75
2022/04/23 11:29:52;;;;;;;;;;;;;;;16.12;100.00;99890.59;5074819;28;19935;-78
2022/04/23 11:32:25;;;;;;;;;;;;;;;15.87;100.00;99882.66;5074167;28;19926;-75
2022/04/23 11:34:56;;;;;;;;;;;;;;;15.69;100.00;99880.00;5092288;28;19939;-76
2022/04/23 11:37:48;;;;;;;;;;;;;;;15.81;100.00;99897.72;5095060;28;20012;-74
2022/04/23 11:40:16;;;;;;;;;;;;;;;16.06;100.00;99898.56;5077070;28;19931;-76
2022/04/23 11:42:46;;;;;;;;;;;;;;;16.08;100.00;99894.13;5074370;28;19920;-75
2022/04/23 11:45:13;;;;;;;;;;;;;;;16.61;100.00;99889.56;5081947;28;19920;-74
2022/04/23 11:47:39;;;;;;;;;;;;;;;16.57;100.00;99909.06;5077924;28;19924;-75
2022/04/23 11:50:09;;;;;;;;;;;;;;;16.37;100.00;99927.72;5093851;28;20332;-75
2022/04/23 11:52:34;;;;;;;;;;;;;;;15.97;100.00;99918.03;5076998;28;19960;-75
2022/04/23 11:55:01;;;;;;;;;;;;;;;16.21;100.00;99929.53;5085191;28;19920;-77
2022/04/23 11:57:26;;;;;;;;;;;;;;;16.35;100.00;99901.16;5080960;28;19920;-77
2022/04/23 11:59:58;;;;;;;;;;;;;;;16.55;100.00;99930.34;5080550;28;19943;-77
2022/04/23 12:02:24;;;;;;;;;;;;;;;16.55;100.00;99910.88;5080986;28;19919;-75
2022/04/23 12:04:59;;;;;;;;;;;;;;;16.89;100.00;99905.41;5102529;28;19979;-76
2022/04/23 12:07:25;;;;;;;;;;;;;;;16.35;100.00;99921.56;5091221;28;19920;-76
2022/04/23 12:09:51;;;;;;;;;;;;;;;16.62;100.00;99915.25;5069941;28;20387;-76
2022/04/23 12:12:19;;;;;;;;;;;;;;;17.01;100.00;99908.91;5110551;28;19997;-78
2022/04/23 12:14:47;;;;;;;;;;;;;;;17.11;100.00;99968.25;5094447;28;19987;-80
2022/04/23 12:17:26;;;;;;;;;;;;;;;17.21;100.00;100023.19;5088347;28;19931;-76
2022/04/23 12:19:54;;;;;;;;;;;;;;;17.52;100.00;100080.69;5089517;28;19932;-76
2022/04/23 12:22:23;;;;;;;;;;;;;;;17.83;100.00;100129.34;5088943;28;20296;-76
2022/04/23 12:24:48;;;;;;;;;;;;;;;17.40;100.00;100177.44;5071566;28;19920;-74
2022/04/23 12:27:14;;;;;;;;;;;;;;;17.09;100.00;100187.25;5073246;28;20145;-75
2022/04/23 12:40:50;;;;;;;;;;;;;;;17.56;100.00;100184.50;5091562;28;19981;-76
2022/04/23 12:43:30;;;;;;;;;;;;;;;17.46;100.00;100180.06;5072934;28;20410;-76
2022/04/23 12:46:04;;;;;;;;;;;;;;;17.49;100.00;100190.72;5070552;28;19923;-73
2022/04/23 12:48:29;;;;;;;;;;;;;;;17.53;100.00;100204.91;5081124;28;19927;-75
2022/04/23 12:51:07;;;;;;;;;;;;;;;17.53;100.00;100200.47;5090226;28;19916;-76
2022/04/23 12:53:35;;;;;;;;;;;;;;;17.26;100.00;100185.47;5070102;28;20053;-77
2022/04/23 12:56:04;;;;;;;;;;;;;;;17.58;100.00;100197.78;5070316;28;19917;-76
2022/04/23 12:58:30;;;;;;;;;;;;;;;17.38;100.00;100222.69;5069974;28;19917;-77
2022/04/23 13:00:55;;;;;;;;;;;;;;;17.87;100.00;100183.50;5070064;28;19920;-77
2022/04/23 13:05:52;;;;;;;;;;;;;;;17.71;100.00;100203.97;5091607;28;20348;-78
2022/04/23 13:11:24;;;;;;;;;;;;;;;17.66;100.00;100219.94;5091745;28;19966;-77
2022/04/23 13:13:46;;;;;;;;;;;;;;;17.70;100.00;100180.91;5091366;28;19934;-77
2022/04/23 13:16:12;;;;;;;;;;;;;;;18.11;100.00;100177.19;5088174;28;20334;-77
2022/04/23 13:18:37;;;;;;;;;;;;;;;18.04;100.00;100173.66;5070142;28;19917;-79
2022/04/23 13:21:03;;;;;;;;;;;;;;;17.86;100.00;100189.72;5069992;28;19921;-79